Time;durP1;ratioP1;P1;durP2;ratioP2;P2;SDS_P1;SDS_P2;PMS_P1;PMS_P2;Temp;Humidity;BMP_temperature;BMP_pressure;BME280_temperature;BME280_humidity;BME280_pressure;Samples;Min_cycle;Max_cycle;Signal;HPM_P1;HPM_P2
2022/07/20 00:01:16;;;;;;;4.80;2.13;;;22.80;8.80;;;;;;6265188;22;20055;-75
2022/07/20 00:03:45;;;;;;;6.03;2.70;;;22.70;10.00;;;;;;6270471;22;20339;-75
2022/07/20 00:06:12;;;;;;;5.05;2.10;;;22.60;11.60;;;;;;6266323;22;20120;-74
2022/07/20 00:11:21;;;;;;;12.38;2.72;;;22.50;13.90;;;;;;6267259;22;20016;-74
2022/07/20 00:14:06;;;;;;;6.07;1.90;;;22.40;14.60;;;;;;6242427;22;20072;-74
2022/07/20 00:16:34;;;;;;;6.57;2.28;;;22.40;15.60;;;;;;6267503;22;20133;-74
2022/07/20 00:18:59;;;;;;;3.80;1.90;;;22.30;14.40;;;;;;6266532;22;20024;-74
2022/07/20 00:21:25;;;;;;;3.17;1.85;;;22.30;14.10;;;;;;6267848;22;20019;-75
2022/07/20 00:23:51;;;;;;;2.72;2.28;;;22.20;13.90;;;;;;6241308;22;20030;-76
2022/07/20 00:26:17;;;;;;;2.50;1.80;;;22.20;15.00;;;;;;6267717;22;20028;-75
2022/07/20 00:28:43;;;;;;;3.95;2.00;;;22.10;12.70;;;;;;6242075;22;20016;-76
2022/07/20 00:31:08;;;;;;;4.32;1.70;;;22.10;11.50;;;;;;6241916;22;20085;-75
2022/07/20 00:33:34;;;;;;;9.10;2.25;;;22.10;11.70;;;;;;6267742;22;20015;-76
2022/07/20 00:36:00;;;;;;;5.63;2.25;;;22.10;11.20;;;;;;6240585;22;20050;-75
2022/07/20 00:38:26;;;;;;;3.33;1.67;;;22.10;11.70;;;;;;6242269;22;20443;-76
2022/07/20 00:40:52;;;;;;;4.28;2.03;;;22.10;11.60;;;;;;6240956;22;20024;-76
2022/07/20 00:43:18;;;;;;;5.93;1.88;;;22.10;11.00;;;;;;6268590;22;20339;-75
2022/07/20 00:45:44;;;;;;;7.07;1.90;;;22.00;11.30;;;;;;6241137;22;20066;-74
2022/07/20 00:48:10;;;;;;;5.35;1.92;;;22.00;11.90;;;;;;6267574;22;20439;-74
2022/07/20 00:50:36;;;;;;;6.45;1.90;;;22.00;11.20;;;;;;6267162;22;20055;-75
2022/07/20 00:53:02;;;;;;;3.33;2.05;;;22.00;11.20;;;;;;6266907;22;20085;-75
2022/07/20 00:55:28;;;;;;;3.75;1.80;;;21.90;11.10;;;;;;6267657;22;20077;-75
2022/07/20 00:57:54;;;;;;;7.68;1.73;;;21.90;10.60;;;;;;6240719;22;20425;-74
2022/07/20 01:00:20;;;;;;;5.50;2.17;;;21.90;10.80;;;;;;6267953;22;20051;-75
2022/07/20 01:02:46;;;;;;;9.48;2.20;;;21.90;10.40;;;;;;6240713;22;20019;-75
2022/07/20 01:05:14;;;;;;;3.70;1.92;;;21.90;10.40;;;;;;6267859;22;20093;-74
2022/07/20 01:07:45;;;;;;;3.53;1.93;;;21.90;10.10;;;;;;6216299;22;20306;-74
2022/07/20 01:10:12;;;;;;;4.00;1.70;;;21.80;9.80;;;;;;6241351;22;20139;-75
2022/07/20 01:12:42;;;;;;;4.03;1.90;;;21.80;9.80;;;;;;6216272;22;20067;-75
2022/07/20 01:15:08;;;;;;;5.18;2.08;;;21.80;10.00;;;;;;6265599;22;20471;-74
2022/07/20 01:17:34;;;;;;;6.72;1.77;;;21.80;10.40;;;;;;6266983;22;20016;-74
2022/07/20 01:20:00;;;;;;;7.95;2.10;;;21.70;10.30;;;;;;6240555;22;20446;-75
2022/07/20 01:22:25;;;;;;;4.03;1.98;;;21.70;10.20;;;;;;6242137;22;20061;-75
2022/07/20 01:24:51;;;;;;;5.97;1.90;;;21.70;10.70;;;;;;6266588;22;20020;-74
2022/07/20 01:27:17;;;;;;;4.32;1.90;;;21.70;10.30;;;;;;6267074;22;20331;-74
2022/07/20 01:29:42;;;;;;;3.22;2.05;;;21.70;11.40;;;;;;6241785;22;20511;-74
2022/07/20 01:32:08;;;;;;;6.25;1.92;;;21.60;12.70;;;;;;6265696;22;20019;-75
2022/07/20 01:34:34;;;;;;;4.50;1.58;;;21.60;13.00;;;;;;6241998;22;20019;-75
2022/07/20 01:37:00;;;;;;;4.70;2.10;;;21.50;13.20;;;;;;6240225;22;20016;-74
2022/07/20 01:39:25;;;;;;;4.82;2.00;;;21.40;13.60;;;;;;6267341;22;20042;-75
2022/07/20 01:41:53;;;;;;;6.38;1.92;;;21.40;15.20;;;;;;6266244;22;20031;-74
2022/07/20 01:44:22;;;;;;;2.97;1.95;;;21.30;15.30;;;;;;6267348;22;20027;-75
2022/07/20 01:46:49;;;;;;;2.78;1.70;;;21.20;15.90;;;;;;6266700;22;20524;-74
2022/07/20 01:49:16;;;;;;;3.55;2.10;;;21.20;16.70;;;;;;6240377;22;20024;-74
2022/07/20 01:51:42;;;;;;;6.75;2.15;;;21.10;16.70;;;;;;6266605;22;20016;-74
2022/07/20 01:54:08;;;;;;;5.10;1.85;;;21.10;16.50;;;;;;6240350;22;20050;-75
2022/07/20 01:56:34;;;;;;;8.38;2.05;;;21.10;17.20;;;;;;6267265;22;20443;-74
2022/07/20 01:59:00;;;;;;;4.68;1.85;;;21.00;16.60;;;;;;6240533;22;20049;-75
2022/07/20 02:01:25;;;;;;;6.10;2.10;;;21.00;16.70;;;;;;6267166;22;20059;-75
2022/07/20 02:03:51;;;;;;;3.08;1.77;;;21.10;15.90;;;;;;6240853;22;20375;-74
2022/07/20 02:06:17;;;;;;;2.42;1.73;;;21.10;15.50;;;;;;6266485;22;20098;-74
2022/07/20 02:08:42;;;;;;;7.28;2.15;;;21.10;15.30;;;;;;6241848;22;20016;-74
2022/07/20 02:11:08;;;;;;;5.47;1.98;;;21.10;14.10;;;;;;6265281;22;20070;-74
2022/07/20 02:13:36;;;;;;;5.13;2.63;;;21.10;14.70;;;;;;6267060;22;20020;-74
2022/07/20 02:16:15;;;;;;;5.28;1.80;;;21.10;13.90;;;;;;6266025;22;20019;-74
2022/07/20 02:18:48;;;;;;;;;;;21.10;14.60;;;;;;6242259;22;20066;-74
2022/07/20 02:21:18;;;;;;;4.85;1.75;;;21.10;14.00;;;;;;6267260;22;19926;-75
2022/07/20 02:23:44;;;;;;;4.07;1.90;;;21.10;17.10;;;;;;6265462;22;20023;-74
2022/07/20 02:26:10;;;;;;;7.68;2.20;;;21.00;17.90;;;;;;6267705;22;20024;-74
2022/07/20 02:28:36;;;;;;;2.63;1.60;;;21.00;16.80;;;;;;6265380;22;20016;-74
2022/07/20 02:31:02;;;;;;;2.13;1.90;;;20.90;17.90;;;;;;6267783;22;20038;-75
2022/07/20 02:33:28;;;;;;;3.78;1.75;;;20.90;24.00;;;;;;6265331;22;20023;-74
2022/07/20 02:35:54;;;;;;;2.03;1.63;;;20.90;21.70;;;;;;6267948;22;20024;-74
2022/07/20 02:38:20;;;;;;;6.70;2.00;;;20.80;21.10;;;;;;6217794;22;20020;-74
2022/07/20 02:40:46;;;;;;;3.25;1.83;;;20.80;20.80;;;;;;6268139;22;20067;-75
2022/07/20 02:43:11;;;;;;;4.95;2.00;;;20.90;23.60;;;;;;6269571;22;20024;-74
2022/07/20 02:45:37;;;;;;;8.02;2.13;;;20.80;24.10;;;;;;6266876;22;20465;-74
2022/07/20 02:48:03;;;;;;;3.83;2.08;;;20.70;24.40;;;;;;6269392;22;20085;-75
2022/07/20 02:50:30;;;;;;;3.55;1.90;;;20.80;25.20;;;;;;6242586;22;20019;-74
2022/07/20 02:52:56;;;;;;;6.63;1.70;;;20.70;25.20;;;;;;6269066;22;20023;-73
2022/07/20 02:55:22;;;;;;;7.68;2.22;;;20.80;23.90;;;;;;6242415;22;20384;-75
2022/07/20 02:57:47;;;;;;;4.60;1.90;;;20.80;23.80;;;;;;6242781;22;20020;-75
2022/07/20 03:00:13;;;;;;;6.15;1.80;;;20.90;23.70;;;;;;6268979;22;20043;-74
2022/07/20 03:02:40;;;;;;;3.42;2.15;;;20.90;23.50;;;;;;6267576;22;20046;-73
2022/07/20 03:05:06;;;;;;;9.70;2.05;;;20.90;22.70;;;;;;6269152;22;20461;-74
2022/07/20 03:07:32;;;;;;;4.75;2.05;;;20.90;24.00;;;;;;6267469;22;20023;-74
2022/07/20 03:09:57;;;;;;;9.35;2.00;;;21.00;24.20;;;;;;6268900;22;20537;-74
2022/07/20 03:12:23;;;;;;;6.47;1.88;;;21.00;26.90;;;;;;6267633;22;20020;-74
2022/07/20 03:14:49;;;;;;;4.82;2.20;;;21.00;29.20;;;;;;6268604;22;20015;-74
2022/07/20 03:17:16;;;;;;;4.95;1.70;;;21.00;32.60;;;;;;6268114;22;20047;-74
2022/07/20 03:19:42;;;;;;;3.10;1.83;;;21.00;34.50;;;;;;6267515;22;20034;-74
2022/07/20 03:22:08;;;;;;;6.70;1.70;;;21.00;39.20;;;;;;6269293;22;20023;-74
2022/07/20 03:24:33;;;;;;;4.85;2.00;;;20.90;41.30;;;;;;6267160;22;20012;-74
2022/07/20 03:26:59;;;;;;;8.48;2.92;;;20.90;43.90;;;;;;6268432;22;20035;-73
2022/07/20 03:29:25;;;;;;;2.67;1.90;;;20.90;46.30;;;;;;6267031;22;20097;-75
2022/07/20 03:31:50;;;;;;;5.28;2.20;;;20.80;48.10;;;;;;6243206;22;20015;-74
2022/07/20 03:34:16;;;;;;;2.60;1.85;;;20.80;48.80;;;;;;6242231;22;20047;-75
2022/07/20 03:36:42;;;;;;;2.22;2.00;;;20.80;49.00;;;;;;6267796;22;20023;-74
2022/07/20 03:39:07;;;;;;;4.88;2.00;;;20.70;45.90;;;;;;6268612;22;20019;-75
2022/07/20 03:41:33;;;;;;;4.28;2.03;;;20.70;45.60;;;;;;6241964;22;20007;-74
2022/07/20 03:43:59;;;;;;;3.90;2.08;;;20.70;43.10;;;;;;6268645;22;20489;-74
2022/07/20 03:46:24;;;;;;;1.98;1.75;;;20.70;37.80;;;;;;6241113;22;20016;-74
2022/07/20 03:48:50;;;;;;;3.60;2.13;;;20.80;33.10;;;;;;6242730;22;20024;-74
2022/07/20 03:51:16;;;;;;;2.20;1.77;;;20.80;29.70;;;;;;6241122;22;20034;-74
2022/07/20 03:53:41;;;;;;;4.88;1.98;;;20.90;29.70;;;;;;6243070;22;20015;-74
2022/07/20 03:56:07;;;;;;;4.13;1.90;;;20.80;30.00;;;;;;6268014;22;20050;-73
2022/07/20 03:58:33;;;;;;;4.75;1.90;;;20.90;29.00;;;;;;6267675;22;20012;-74
2022/07/20 04:00:59;;;;;;;7.22;2.10;;;20.90;30.60;;;;;;6268400;22;20050;-74
2022/07/20 04:03:25;;;;;;;10.73;1.90;;;20.90;36.10;;;;;;6241661;22;20665;-74
2022/07/20 04:05:50;;;;;;;8.30;2.47;;;20.90;39.70;;;;;;6242735;22;20019;-73
2022/07/20 04:08:16;;;;;;;5.30;2.20;;;20.90;42.70;;;;;;6241724;22;20020;-74
2022/07/20 04:10:42;;;;;;;4.55;2.00;;;20.80;46.40;;;;;;6268075;22;20496;-74
2022/07/20 04:13:07;;;;;;;5.55;2.15;;;20.80;50.30;;;;;;6241651;22;20071;-74
2022/07/20 04:15:33;;;;;;;7.07;1.92;;;20.70;54.10;;;;;;6268023;22;20081;-74
2022/07/20 04:17:59;;;;;;;7.22;1.85;;;20.70;58.30;;;;;;6242236;22;20552;-74
2022/07/20 04:20:24;;;;;;;4.75;1.88;;;20.60;61.70;;;;;;6267108;22;20351;-73
2022/07/20 04:22:50;;;;;;;6.80;1.83;;;20.60;64.60;;;;;;6267849;22;20162;-74
2022/07/20 04:25:16;;;;;;;2.15;1.98;;;20.50;63.90;;;;;;6191170;22;20077;-74
2022/07/20 04:27:43;;;;;;;5.50;1.85;;;20.60;61.80;;;;;;6243206;22;20039;-74
2022/07/20 04:30:09;;;;;;;4.68;2.10;;;20.60;61.50;;;;;;6240856;22;20016;-74
2022/07/20 04:32:35;;;;;;;3.03;1.75;;;20.60;61.20;;;;;;6242908;22;20030;-75
2022/07/20 04:35:01;;;;;;;9.23;2.30;;;20.70;59.90;;;;;;6241423;22;20094;-74
2022/07/20 04:37:26;;;;;;;2.97;2.15;;;20.70;59.10;;;;;;6269228;22;20026;-74
2022/07/20 04:39:52;;;;;;;6.03;2.38;;;20.70;57.30;;;;;;6267617;22;20351;-74
2022/07/20 04:42:18;;;;;;;4.75;2.00;;;20.80;55.70;;;;;;6266385;22;20020;-74
2022/07/20 04:44:43;;;;;;;4.97;2.03;;;20.80;53.30;;;;;;6242503;22;20556;-74
2022/07/20 04:47:09;;;;;;;11.15;2.03;;;20.80;49.40;;;;;;6265864;22;20512;-74
2022/07/20 04:49:35;;;;;;;3.65;2.05;;;20.80;48.50;;;;;;6242586;22;20082;-74
2022/07/20 04:52:00;;;;;;;10.52;1.75;;;20.80;45.80;;;;;;6266551;22;20027;-74
2022/07/20 04:54:26;;;;;;;1.95;1.80;;;20.80;44.50;;;;;;6267866;22;20453;-74
2022/07/20 04:56:52;;;;;;;5.63;2.30;;;20.90;37.50;;;;;;6242036;22;20020;-74
2022/07/20 04:59:20;;;;;;;3.53;1.80;;;20.90;35.00;;;;;;6266929;22;20103;-74
2022/07/20 05:01:45;;;;;;;6.70;1.83;;;21.00;34.70;;;;;;6242522;22;20019;-74
2022/07/20 05:04:11;;;;;;;7.43;2.00;;;21.10;36.70;;;;;;6265945;22;20090;-74
2022/07/20 05:06:37;;;;;;;3.67;2.10;;;21.10;37.00;;;;;;6267942;22;20023;-74
2022/07/20 05:09:06;;;;;;;2.17;1.65;;;21.20;38.90;;;;;;6265064;22;20027;-74
2022/07/20 05:11:33;;;;;;;3.63;1.92;;;21.30;39.20;;;;;;6267883;22;20034;-74
2022/07/20 05:13:59;;;;;;;3.17;1.90;;;21.30;37.10;;;;;;6266866;22;20342;-74
2022/07/20 05:16:24;;;;;;;3.03;1.90;;;21.40;36.10;;;;;;6266906;22;20011;-73
2022/07/20 05:18:50;;;;;;;4.10;2.17;;;21.50;35.00;;;;;;6242831;22;20018;-74
2022/07/20 05:21:16;;;;;;;3.13;1.60;;;21.50;35.10;;;;;;6266075;22;20027;-75
2022/07/20 05:23:41;;;;;;;8.18;1.80;;;21.60;34.70;;;;;;6267831;22;20027;-74
2022/07/20 05:26:07;;;;;;;4.95;2.20;;;21.60;34.60;;;;;;6240128;22;20102;-74
2022/07/20 05:28:33;;;;;;;7.95;1.98;;;21.70;37.20;;;;;;6268586;22;20011;-74
2022/07/20 05:30:58;;;;;;;3.90;1.95;;;21.80;36.60;;;;;;6266133;22;20096;-74
2022/07/20 05:33:24;;;;;;;13.38;2.42;;;21.80;38.10;;;;;;6216426;22;20094;-75
2022/07/20 05:35:50;;;;;;;7.70;2.22;;;21.90;40.70;;;;;;6242165;22;20030;-74
2022/07/20 05:38:17;;;;;;;4.60;2.00;;;21.90;43.60;;;;;;6265335;22;20030;-74
2022/07/20 05:40:43;;;;;;;3.75;1.92;;;22.00;42.20;;;;;;6242623;22;20015;-74
2022/07/20 05:43:09;;;;;;;2.97;2.20;;;22.00;42.10;;;;;;6265266;22;20095;-74
2022/07/20 05:45:34;;;;;;;6.35;1.92;;;22.10;42.90;;;;;;6242074;22;20095;-74
2022/07/20 05:48:00;;;;;;;7.57;1.88;;;22.10;38.20;;;;;;6240108;22;20019;-74
2022/07/20 05:50:26;;;;;;;3.20;2.20;;;22.10;38.00;;;;;;6242085;22;20455;-74
2022/07/20 05:52:52;;;;;;;3.38;2.00;;;22.20;39.70;;;;;;6266469;22;20059;-74
2022/07/20 05:55:18;;;;;;;4.43;2.40;;;22.30;40.40;;;;;;6265897;22;20019;-74
2022/07/20 05:57:44;;;;;;;5.85;2.08;;;22.30;41.50;;;;;;6241802;22;20019;-74
2022/07/20 06:00:10;;;;;;;7.60;2.35;;;22.40;38.80;;;;;;6265382;22;20095;-74
2022/07/20 06:02:36;;;;;;;6.82;2.50;;;22.50;27.10;;;;;;6242327;22;20100;-74
2022/07/20 06:05:02;;;;;;;4.15;1.98;;;22.60;30.60;;;;;;6240150;22;20380;-74
2022/07/20 06:07:28;;;;;;;2.78;2.05;;;22.70;25.50;;;;;;6241822;22;20019;-74
2022/07/20 06:09:53;;;;;;;6.38;2.08;;;22.70;24.20;;;;;;6241061;22;20023;-74
2022/07/20 06:12:19;;;;;;;3.30;2.10;;;22.90;23.20;;;;;;6268300;22;20031;-74
2022/07/20 06:14:45;;;;;;;2.00;1.90;;;23.00;25.00;;;;;;6269422;22;20019;-74
2022/07/20 06:17:11;;;;;;;16.17;3.20;;;23.10;20.30;;;;;;6215494;22;20051;-74
2022/07/20 06:19:37;;;;;;;3.20;2.10;;;23.20;18.50;;;;;;6269230;22;20019;-74
2022/07/20 06:22:03;;;;;;;10.00;2.67;;;23.30;17.20;;;;;;6265931;22;20020;-73
2022/07/20 06:24:29;;;;;;;9.02;2.60;;;23.40;15.40;;;;;;6242883;22;20011;-74
2022/07/20 06:26:54;;;;;;;8.05;2.33;;;23.60;20.30;;;;;;6241787;22;20050;-73
2022/07/20 06:29:20;;;;;;;10.18;2.38;;;23.70;22.10;;;;;;6218018;22;20077;-74
2022/07/20 06:31:46;;;;;;;4.47;1.95;;;23.80;20.20;;;;;;6242945;22;20011;-73
2022/07/20 06:34:13;;;;;;;5.13;2.50;;;23.90;21.30;;;;;;6242231;22;20058;-73
2022/07/20 06:36:38;;;;;;;3.47;2.75;;;24.00;12.70;;;;;;6268860;22;20033;-73
2022/07/20 06:39:04;;;;;;;5.43;2.78;;;24.20;13.50;;;;;;6267091;22;20455;-73
2022/07/20 06:41:30;;;;;;;4.25;2.47;;;24.40;10.60;;;;;;6269151;22;20588;-73
2022/07/20 06:43:56;;;;;;;5.82;2.65;;;24.70;5.50;;;;;;6267349;22;20046;-72
2022/07/20 06:46:21;;;;;;;9.10;2.80;;;24.90;5.80;;;;;;6268154;22;20024;-72
2022/07/20 06:48:47;;;;;;;4.13;2.80;;;25.20;1.80;;;;;;6242349;22;20401;-71
2022/07/20 06:51:13;;;;;;;7.88;2.72;;;25.30;1.00;;;;;;6242401;22;20103;-72
2022/07/20 06:53:38;;;;;;;9.57;2.92;;;25.50;1.00;;;;;;6243036;22;20095;-71
2022/07/20 06:56:04;;;;;;;4.05;2.60;;;25.70;1.00;;;;;;6241689;22;20020;-72
2022/07/20 06:58:30;;;;;;;10.18;2.92;;;25.80;1.00;;;;;;6243055;22;20086;-71
2022/07/20 07:00:56;;;;;;;4.15;2.70;;;26.10;1.00;;;;;;6267143;22;20062;-72
2022/07/20 07:03:21;;;;;;;10.32;2.95;;;26.40;1.00;;;;;;6242739;22;20312;-72
2022/07/20 07:05:47;;;;;;;4.82;3.00;;;26.50;1.00;;;;;;6267269;22;20019;-72
2022/07/20 07:08:13;;;;;;;4.80;3.35;;;26.70;1.00;;;;;;6268181;22;20347;-72
2022/07/20 07:10:39;;;;;;;4.70;3.17;;;26.90;1.00;;;;;;6268182;22;20019;-71
2022/07/20 07:13:04;;;;;;;11.52;3.38;;;27.10;1.00;;;;;;6241996;22;20016;-72
2022/07/20 07:15:30;;;;;;;6.97;3.05;;;27.30;1.00;;;;;;6268992;22;20342;-73
2022/07/20 07:17:56;;;;;;;7.70;2.70;;;27.50;1.00;;;;;;6266312;22;20034;-73
2022/07/20 07:20:22;;;;;;;5.95;3.15;;;27.80;1.00;;;;;;6243064;22;20023;-72
2022/07/20 07:22:47;;;;;;;6.57;2.90;;;28.00;1.00;;;;;;6266333;22;20443;-71
2022/07/20 07:25:13;;;;;;;5.20;2.70;;;28.30;1.00;;;;;;6268274;22;20026;-72
2022/07/20 07:27:39;;;;;;;8.82;2.88;;;28.60;1.00;;;;;;6238748;22;20042;-72
2022/07/20 07:30:05;;;;;;;5.72;2.45;;;28.90;1.00;;;;;;6263368;22;20019;-72
2022/07/20 07:32:31;;;;;;;9.00;2.30;;;29.30;1.00;;;;;;6262885;22;20102;-73
2022/07/20 07:34:57;;;;;;;8.52;2.25;;;29.70;1.00;;;;;;6265662;22;20084;-72
2022/07/20 07:37:22;;;;;;;9.93;2.63;;;30.10;1.00;;;;;;6239716;22;20015;-73
2022/07/20 07:39:49;;;;;;;10.55;2.40;;;30.40;1.00;;;;;;6264029;22;20107;-73
2022/07/20 07:42:14;;;;;;;5.47;2.55;;;30.70;1.00;;;;;;6265058;22;20347;-73
2022/07/20 07:44:40;;;;;;;6.82;2.40;;;31.00;1.00;;;;;;6263564;22;20027;-73
2022/07/20 07:47:06;;;;;;;9.77;2.40;;;31.20;1.00;;;;;;6263529;22;20019;-73
2022/07/20 07:49:32;;;;;;;9.23;2.40;;;31.30;1.00;;;;;;6241601;22;20098;-72
2022/07/20 07:51:57;;;;;;;6.53;2.38;;;31.40;1.00;;;;;;6266901;22;20102;-73
2022/07/20 07:54:23;;;;;;;6.00;2.08;;;31.60;1.00;;;;;;6267995;22;20521;-72
2022/07/20 07:56:49;;;;;;;15.90;2.88;;;31.80;1.00;;;;;;6240577;22;20027;-72
2022/07/20 07:59:15;;;;;;;3.97;3.03;;;32.00;1.00;;;;;;6267679;22;20020;-72
2022/07/20 08:01:41;;;;;;;8.80;2.70;;;32.10;1.00;;;;;;6268174;22;20024;-74
2022/07/20 08:04:07;;;;;;;5.10;2.85;;;32.30;1.00;;;;;;6242576;22;20016;-73
2022/07/20 08:06:33;;;;;;;12.60;2.97;;;32.50;1.00;;;;;;6265993;22;20019;-73
2022/07/20 08:08:59;;;;;;;7.47;2.40;;;32.50;1.00;;;;;;6266963;22;20019;-73
2022/07/20 08:11:25;;;;;;;8.60;2.40;;;32.70;1.00;;;;;;6267130;22;20030;-73
2022/07/20 08:13:53;;;;;;;7.55;2.60;;;32.80;1.00;;;;;;6265392;22;20157;-73
2022/07/20 08:16:19;;;;;;;9.20;2.85;;;32.90;1.00;;;;;;6241337;22;20015;-73
2022/07/20 08:18:45;;;;;;;4.50;2.42;;;33.00;1.00;;;;;;6264671;22;20020;-73
2022/07/20 08:21:11;;;;;;;11.95;2.92;;;33.00;1.00;;;;;;6267706;22;20065;-73
2022/07/20 08:23:36;;;;;;;5.15;2.60;;;33.10;1.00;;;;;;6266294;22;20375;-72
2022/07/20 08:26:02;;;;;;;16.10;3.30;;;33.10;1.00;;;;;;6242277;22;20027;-73
2022/07/20 08:28:28;;;;;;;6.97;2.50;;;33.10;1.00;;;;;;6216116;22;20049;-72
2022/07/20 08:30:54;;;;;;;6.38;2.67;;;33.10;1.00;;;;;;6240932;22;20020;-72
2022/07/20 08:33:20;;;;;;;13.10;2.45;;;33.10;1.00;;;;;;6266312;22;20019;-74
2022/07/20 08:35:46;;;;;;;6.55;2.83;;;33.10;1.00;;;;;;6264295;22;20043;-73
2022/07/20 08:38:12;;;;;;;8.57;2.70;;;33.10;1.00;;;;;;6265976;22;20407;-73
2022/07/20 08:40:38;;;;;;;10.70;3.10;;;33.10;1.00;;;;;;6238603;22;20073;-72
2022/07/20 08:43:05;;;;;;;8.80;2.90;;;33.20;1.00;;;;;;6267025;22;20019;-73
2022/07/20 08:45:31;;;;;;;8.40;2.97;;;33.20;1.00;;;;;;6266604;22;20320;-72
2022/07/20 08:48:04;;;;;;;8.18;3.10;;;33.20;1.00;;;;;;6267001;22;20027;-73
2022/07/20 08:50:32;;;;;;;3.88;2.90;;;33.00;1.00;;;;;;6268341;22;20308;-73
2022/07/20 08:52:58;;;;;;;6.37;2.80;;;32.90;1.00;;;;;;6266211;22;20016;-74
2022/07/20 08:55:25;;;;;;;7.20;2.83;;;32.90;1.00;;;;;;6241886;22;20024;-74
2022/07/20 08:57:50;;;;;;;12.57;3.30;;;32.80;1.00;;;;;;6240778;22;20077;-73
2022/07/20 09:00:17;;;;;;;7.72;3.22;;;32.80;1.00;;;;;;6242321;22;20015;-74
2022/07/20 09:02:57;;;;;;;12.07;3.22;;;32.80;1.00;;;;;;6265928;22;20081;-72
2022/07/20 09:05:25;;;;;;;7.75;2.97;;;32.40;1.00;;;;;;6240112;22;20050;-71
2022/07/20 09:07:53;;;;;;;8.38;3.35;;;32.00;1.00;;;;;;6242147;22;20342;-74
2022/07/20 09:10:27;;;;;;;11.10;3.50;;;31.80;1.00;;;;;;6264243;22;20438;-73
2022/07/20 09:13:03;;;;;;;7.60;3.50;;;31.70;1.00;;;;;;6267375;22;20026;-73
2022/07/20 09:15:32;;;;;;;11.05;4.63;;;31.70;1.00;;;;;;6265674;22;20023;-74
2022/07/20 09:18:22;;;;;;;8.50;4.20;;;31.70;1.00;;;;;;6241047;22;20393;-73
2022/07/20 09:21:07;;;;;;;7.82;4.22;;;31.60;1.00;;;;;;6265850;22;20031;-72
2022/07/20 09:23:42;;;;;;;4.82;3.38;;;31.30;1.00;;;;;;6239339;22;20074;-72
2022/07/20 09:26:11;;;;;;;8.65;4.10;;;31.00;1.00;;;;;;6267248;22;20049;-72
2022/07/20 09:28:36;;;;;;;;;;;30.90;1.00;;;;;;6266596;22;20024;-74
2022/07/20 09:31:08;;;;;;;15.10;5.15;;;30.90;1.00;;;;;;6266440;22;19922;-74
2022/07/20 09:33:33;;;;;;;6.65;4.63;;;30.90;1.00;;;;;;6241359;22;20020;-74
2022/07/20 09:36:04;;;;;;;12.15;4.97;;;30.80;1.00;;;;;;6265493;22;20509;-73
2022/07/20 09:38:38;;;;;;;13.00;5.80;;;30.50;1.00;;;;;;6267173;22;20023;-73
2022/07/20 09:41:19;;;;;;;9.48;5.38;;;30.50;1.00;;;;;;6263566;22;20028;-72
2022/07/20 09:43:45;;;;;;;9.75;5.65;;;30.30;1.00;;;;;;6240490;22;20043;-74
2022/07/20 09:46:14;;;;;;;31.25;6.65;;;30.20;1.00;;;;;;6267405;22;20528;-72
2022/07/20 09:48:42;;;;;;;16.98;6.78;;;30.20;1.00;;;;;;6263643;22;20032;-73
2022/07/20 09:51:19;;;;;;;12.80;6.40;;;30.20;1.00;;;;;;6266412;22;20024;-74
2022/07/20 09:53:45;;;;;;;16.00;6.90;;;30.40;1.00;;;;;;6263563;22;20016;-72
2022/07/20 09:56:15;;;;;;;16.77;7.15;;;30.50;1.00;;;;;;6241383;22;20069;-73
2022/07/20 09:58:42;;;;;;;21.48;7.07;;;30.50;1.00;;;;;;6265213;22;20027;-73
2022/07/20 10:01:09;;;;;;;21.25;7.43;;;30.60;1.00;;;;;;6267005;22;20090;-72
2022/07/20 10:03:35;;;;;;;16.60;7.88;;;30.50;1.00;;;;;;6265731;22;20418;-74
2022/07/20 10:06:01;;;;;;;20.30;8.20;;;30.30;1.00;;;;;;6266644;22;20415;-73
2022/07/20 10:08:27;;;;;;;20.15;8.57;;;30.10;1.00;;;;;;6268815;22;20015;-73
2022/07/20 10:10:53;;;;;;;17.98;8.05;;;30.00;1.00;;;;;;6241567;22;20099;-72
2022/07/20 10:13:19;;;;;;;24.27;10.48;;;30.00;1.50;;;;;;6266344;22;20496;-73
2022/07/20 10:15:55;;;;;;;22.50;10.02;;;30.10;1.00;;;;;;6238885;22;20375;-73
2022/07/20 10:18:22;;;;;;;20.13;9.98;;;30.20;7.10;;;;;;6265927;22;20016;-74
2022/07/20 10:20:49;;;;;;;25.45;10.90;;;30.10;6.60;;;;;;6265903;22;20023;-73
2022/07/20 10:23:14;;;;;;;17.85;10.88;;;30.10;6.10;;;;;;6238895;22;20020;-71
2022/07/20 10:25:41;;;;;;;18.25;10.82;;;29.80;8.00;;;;;;6264950;22;20023;-74
2022/07/20 10:28:34;;;;;;;28.27;11.05;;;29.80;19.00;;;;;;6240296;22;20044;-74
2022/07/20 10:31:08;;;;;;;25.02;11.25;;;29.90;10.30;;;;;;6267111;22;20926;-73
2022/07/20 10:33:36;;;;;;;24.05;10.90;;;29.90;11.60;;;;;;6268020;22;20025;-73
2022/07/20 10:39:37;;;;;;;22.23;10.38;;;29.80;3.00;;;;;;6267459;22;20024;-73
2022/07/20 10:42:23;;;;;;;14.43;9.20;;;29.80;1.00;;;;;;6242065;22;20024;-74
2022/07/20 10:44:49;;;;;;;20.73;9.88;;;29.70;1.00;;;;;;6265678;22;20389;-73
2022/07/20 10:47:48;;;;;;;17.35;9.27;;;29.60;6.70;;;;;;6268035;22;20015;-73
2022/07/20 10:50:20;;;;;;;13.65;8.98;;;29.50;6.20;;;;;;6241616;22;20022;-73
2022/07/20 10:52:53;;;;;;;13.85;8.60;;;29.50;1.00;;;;;;6267762;22;20015;-74
2022/07/20 10:55:34;;;;;;;21.52;10.10;;;29.30;1.00;;;;;;6268927;22;20012;-74
2022/07/20 10:58:01;;;;;;;16.00;9.52;;;29.20;1.00;;;;;;6266879;22;20470;-73
2022/07/20 11:00:52;;;;;;;21.88;10.15;;;29.30;1.00;;;;;;6243263;22;20439;-73
2022/07/20 11:03:27;;;;;;;15.88;9.13;;;29.30;1.00;;;;;;6266751;22;20474;-74
2022/07/20 11:06:05;;;;;;;15.35;9.45;;;29.30;1.00;;;;;;6241014;22;20389;-73
2022/07/20 11:08:32;;;;;;;20.55;10.20;;;29.30;1.00;;;;;;6242313;22;20070;-73
2022/07/20 11:10:58;;;;;;;20.50;8.82;;;29.40;1.90;;;;;;6266188;22;20050;-73
2022/07/20 11:13:24;;;;;;;18.70;9.13;;;29.30;1.00;;;;;;6268515;22;20450;-74
2022/07/20 11:15:53;;;;;;;14.48;8.70;;;29.20;1.00;;;;;;6265308;22;20016;-73
2022/07/20 11:18:24;;;;;;;17.13;8.82;;;29.10;1.00;;;;;;6266557;22;20019;-74
2022/07/20 11:21:11;;;;;;;15.38;8.68;;;29.00;1.10;;;;;;6265178;22;20020;-75
2022/07/20 11:23:46;;;;;;;14.73;7.80;;;28.90;2.40;;;;;;6265068;22;20173;-76
2022/07/20 11:26:14;;;;;;;10.40;7.47;;;29.00;1.00;;;;;;6242708;22;20169;-77
2022/07/20 11:28:55;;;;;;;13.90;7.65;;;29.00;1.00;;;;;;6265188;22;20022;-76
2022/07/20 11:31:25;;;;;;;13.13;7.00;;;29.00;3.60;;;;;;6266661;22;20062;-78
2022/07/20 11:33:52;;;;;;;12.50;7.47;;;29.00;1.00;;;;;;6265008;22;20015;-77
2022/07/20 11:36:20;;;;;;;12.83;6.60;;;29.00;1.00;;;;;;6237648;22;20347;-78
2022/07/20 11:38:54;;;;;;;13.27;7.38;;;28.80;1.00;;;;;;6265138;22;20019;-77
2022/07/20 11:41:23;;;;;;;13.05;6.65;;;28.70;1.00;;;;;;6263101;22;20565;-78
2022/07/20 11:43:51;;;;;;;10.80;6.78;;;28.60;1.00;;;;;;6238750;22;20026;-79
2022/07/20 11:46:18;;;;;;;13.35;6.72;;;28.60;1.00;;;;;;6263381;22;20020;-77
2022/07/20 11:48:51;;;;;;;10.82;7.40;;;28.60;1.00;;;;;;6264743;22;20019;-77
2022/07/20 11:51:17;;;;;;;12.98;6.22;;;28.60;1.00;;;;;;6265508;22;20027;-79
2022/07/20 11:53:43;;;;;;;11.82;6.22;;;28.70;1.00;;;;;;6238504;22;20305;-78
2022/07/20 11:56:17;;;;;;;8.93;5.95;;;28.90;1.00;;;;;;6265096;22;20123;-78
2022/07/20 11:58:45;;;;;;;9.90;6.07;;;29.00;1.00;;;;;;6262406;22;20020;-76
2022/07/20 12:01:14;;;;;;;17.67;6.72;;;29.00;1.00;;;;;;6265779;22;20206;-77
2022/07/20 12:03:41;;;;;;;10.52;5.72;;;29.00;1.00;;;;;;6264266;22;20355;-78
2022/07/20 12:06:13;;;;;;;9.27;5.23;;;29.10;1.00;;;;;;6267404;22;20092;-78
2022/07/20 12:08:40;;;;;;;8.57;5.78;;;29.10;1.00;;;;;;6266940;22;20042;-77
2022/07/20 12:11:07;;;;;;;12.85;5.25;;;29.10;1.00;;;;;;6241029;22;20397;-76
2022/07/20 12:13:45;;;;;;;11.82;6.00;;;29.10;1.00;;;;;;6267140;22;20513;-78
2022/07/20 12:16:11;;;;;;;8.45;6.13;;;29.10;1.00;;;;;;6266375;22;20029;-77
2022/07/20 12:18:44;;;;;;;13.52;5.60;;;29.30;1.00;;;;;;6240523;22;20713;-77
2022/07/20 12:21:15;;;;;;;12.45;6.32;;;29.30;1.00;;;;;;6267040;22;20016;-77
2022/07/20 12:23:43;;;;;;;8.27;5.63;;;29.30;1.00;;;;;;6266048;22;20019;-77
2022/07/20 12:26:29;;;;;;;10.60;5.60;;;29.30;1.00;;;;;;6242461;22;20016;-79
2022/07/20 12:29:15;;;;;;;10.40;5.65;;;29.40;1.00;;;;;;6240248;22;20400;-77
2022/07/20 12:31:41;;;;;;;11.80;5.57;;;29.50;1.00;;;;;;6266976;22;20023;-78
2022/07/20 12:34:14;;;;;;;12.50;5.28;;;29.60;1.00;;;;;;6267001;22;20050;-78
2022/07/20 12:36:43;;;;;;;13.15;4.90;;;29.70;1.00;;;;;;6266558;22;20332;-79
2022/07/20 12:39:15;;;;;;;8.75;4.97;;;29.80;1.00;;;;;;6240494;22;20026;-77
2022/07/20 12:41:42;;;;;;;11.13;5.43;;;29.90;1.00;;;;;;6240801;22;20024;-78
2022/07/20 12:44:28;;;;;;;16.50;5.53;;;29.80;1.00;;;;;;6268729;22;20015;-76
2022/07/20 12:46:56;;;;;;;8.80;5.28;;;29.80;1.00;;;;;;6266490;22;20112;-77
2022/07/20 12:49:24;;;;;;;11.32;6.20;;;29.80;1.00;;;;;;6267218;22;20020;-77
2022/07/20 12:51:51;;;;;;;9.63;4.90;;;29.80;1.00;;;;;;6269650;22;20020;-75
2022/07/20 12:54:18;;;;;;;12.52;4.88;;;29.80;1.00;;;;;;6240971;22;20061;-78
2022/07/20 12:56:44;;;;;;;11.07;4.70;;;29.80;1.00;;;;;;6267798;22;20020;-76